MPTOSKPE

Guest
Details From MPTO - Tocumen Intl
To SKPE - MATECANA
Flight Number -
Tags generated
Created
Modified
Stats Distance 342 nm / 633 km
Max Altitude 25,600 ft / 7,803 m
Waypoints 5
Social Downloads 0
Likes 0
Share VATSIM

Download

Looking for another format? Having issues loading an existing format? Contact us
Advertisement - Login to hide

Notes

Basic altitude profile: - Ascent Rate: 2500ft/min - Ascent Speed: 250kts - Cruise Altitude: 35000ft - Cruise Speed: 420kts - Descent Rate: 1500ft/min - Descent Speed: 250kts Options: - Use NATs: yes - Use PACOTS: yes - Use low airways: yes - Use high airways: no

Route

MPTO ITAGO A317 DAKMO W36 URRAO SKPE

ID Type Via Altitude Latitude Longitude Leg Dist Tot Dist Heading (true) Name
O MPTO APT - 0 ft / 0 m 9.07136˚ -79.38346˚ - 0 nm - Tocumen Intl
ITAGO FIX - 25,600 ft / 7,803 m 8.07953˚ -78.62394˚ 74 nm 74 nm 143° / 143° -
DAKMO FIX A317 (AWY-LO) 19,500 ft / 5,944 m 7.46139˚ -77.80975˚ 61 nm 135 nm 127° / 128° -
URRAO FIX W36 (AWY-LO) 19,500 ft / 5,944 m 6.02056˚ -76.22528˚ 128 nm 263 nm 132° / 133° -
O SKPE APT - 0 ft / 0 m 4.81267˚ -75.73952˚ 78 nm 342 nm 158° / 158° MATECANA

Altitude Profile

Advertisement - Login to hide

Weather


0- 5 10 15 20 25 30 35+ Temperature / ° C

Clouds and Precipitation
Forecast for 2017-12-16 06:00 UTC. Updated 32 minutes ago

Ground ~20,000 ft ~40,000 ft Winds

MPTO

Details ICAO MPTO (PTY)
Name Tocumen Intl
Region Panama
Timezone America/Panama (UTC-5.0)
Stats Elevation 135 ft / 41 m (AMSL)
Location 9.071364° -79.383458°
Runways 2
Magnetic Variation 4.532° W

METAR

MPTO 160100Z 28009KT 9999 FEW018 26/24 Q1010 NOSIG

Decode

TAF

Not found

Departure Runways

ID Width Length Bearing (true) Bearing (mag) Surface Threshold Offset Overrun Length
03L 200 ft / 61 m 8,798 ft / 2,682 m 30.67° 35.20° Asphalt 0 ft / 0 m 0 ft / 0 m
03R 148 ft / 45 m 10,008 ft / 3,051 m 29.33° 33.86° Concrete 0 ft / 0 m 198 ft / 60 m
21L 148 ft / 45 m 10,008 ft / 3,051 m 209.33° 213.86° Concrete 0 ft / 0 m 198 ft / 60 m
21R 200 ft / 61 m 8,798 ft / 2,682 m 210.67° 215.20° Asphalt 0 ft / 0 m 0 ft / 0 m

SKPE

Details ICAO SKPE (PEI)
Name MATECANA
Region Colombia
Timezone America/Bogota (UTC-5.0)
Stats Elevation 4,416 ft / 1,346 m (AMSL)
Location 4.812673° -75.739518°
Runways 1
Magnetic Variation 6.216° W

METAR

SKPE 160100Z VRB02KT 9999 FEW017 SCT090 22/19 A2999

Decode

TAF

Not found

Destination Runways

ID Width Length Bearing (true) Bearing (mag) Surface Threshold Offset Overrun Length
08 148 ft / 45 m 6,628 ft / 2,020 m 72.24° 78.46° Asphalt 0 ft / 0 m 0 ft / 0 m
26 148 ft / 45 m 6,628 ft / 2,020 m 252.24° 258.46° Asphalt 0 ft / 0 m 0 ft / 0 m

Popular Alternatives